Time;durP1;ratioP1;P1;durP2;ratioP2;P2;SDS_P1;SDS_P2;PMS_P1;PMS_P2;Temp;Humidity;BMP_temperature;BMP_pressure;BME280_temperature;BME280_humidity;BME280_pressure;Samples;Min_cycle;Max_cycle;Signal;HPM_P1;HPM_P2
2022/08/06 00:03:43;;;;;;;4.60;3.05;;;;;;;14.37;100.00;97150.06;10493794;28;20191;-72
2022/08/06 00:08:43;;;;;;;3.35;3.00;;;;;;;14.37;100.00;97150.06;10493285;28;20713;-72
2022/08/06 00:13:43;;;;;;;4.50;3.53;;;;;;;14.42;100.00;97139.00;10493466;28;20656;-72
2022/08/06 00:18:44;;;;;;;6.35;3.40;;;;;;;14.42;100.00;97157.47;10493040;28;20678;-73
2022/08/06 00:23:44;;;;;;;4.25;3.63;;;;;;;14.55;100.00;97149.03;10492109;28;20256;-73
2022/08/06 00:28:44;;;;;;;4.57;2.83;;;;;;;14.64;100.00;97158.59;10492381;28;20223;-72
2022/08/06 00:33:45;;;;;;;4.05;3.42;;;;;;;14.73;100.00;97127.72;10492210;28;20218;-73
2022/08/06 00:38:45;;;;;;;5.97;3.35;;;;;;;14.62;100.00;97079.66;10492405;28;20523;-72
2022/08/06 00:43:46;;;;;;;4.20;3.60;;;;;;;14.62;100.00;97079.66;10492175;28;20287;-73
2022/08/06 00:48:46;;;;;;;5.38;3.58;;;;;;;14.55;100.00;97093.69;10491471;28;20455;-72
2022/08/06 00:53:46;;;;;;;7.00;3.40;;;;;;;14.47;100.00;97122.69;10491873;28;20316;-73
2022/08/06 00:58:47;;;;;;;6.80;4.07;;;;;;;14.50;100.00;97139.00;10490550;28;20201;-72
2022/08/06 01:03:47;;;;;;;6.97;4.50;;;;;;;14.57;100.00;97157.59;10491620;28;20191;-73
2022/08/06 01:08:48;;;;;;;6.30;4.68;;;;;;;14.54;100.00;97166.66;10490686;28;20219;-73
2022/08/06 01:13:48;;;;;;;7.55;4.90;;;;;;;14.20;100.00;97165.09;10490810;28;20198;-73
2022/08/06 01:19:13;;;;;;;7.57;5.60;;;;;;;14.32;100.00;97167.38;10490737;28;20222;-72
2022/08/06 01:24:39;;;;;;;6.25;4.90;;;;;;;14.50;100.00;97143.44;10489845;28;20251;-72
2022/08/06 01:29:40;;;;;;;5.50;4.97;;;;;;;14.59;100.00;97137.97;10490373;28;20495;-73
2022/08/06 01:34:47;;;;;;;7.25;5.22;;;;;;;14.63;100.00;97149.03;10489606;28;20553;-72
2022/08/06 01:39:51;;;;;;;6.20;5.60;;;;;;;14.56;100.00;97155.94;10490949;28;20558;-72
2022/08/06 01:44:54;;;;;;;8.68;5.75;;;;;;;14.64;100.00;97163.88;10489256;28;20201;-72
2022/08/06 01:49:57;;;;;;;8.15;6.38;;;;;;;14.62;100.00;97164.03;10489369;28;20195;-72
2022/08/06 01:54:58;;;;;;;8.50;5.60;;;;;;;14.70;100.00;97157.91;10490209;28;20274;-72
2022/08/06 02:00:00;;;;;;;11.43;6.72;;;;;;;14.70;100.00;97163.19;10489108;28;20290;-72
2022/08/06 02:05:01;;;;;;;9.38;7.68;;;;;;;14.65;100.00;97165.50;10472376;28;20190;-72
2022/08/06 02:10:04;;;;;;;9.50;7.05;;;;;;;14.56;100.00;97177.88;10490209;28;20593;-72
2022/08/06 02:15:14;;;;;;;8.57;7.32;;;;;;;14.59;100.00;97177.53;10488451;28;20203;-73
2022/08/06 02:20:17;;;;;;;8.65;5.13;;;;;;;14.37;100.00;97186.97;10488335;28;20651;-72
2022/08/06 02:25:18;;;;;;;8.25;5.80;;;;;;;14.22;100.00;97223.72;10479388;28;20255;-72
2022/08/06 02:30:18;;;;;;;8.90;4.28;;;;;;;14.22;100.00;97225.53;10497186;28;20650;-72
2022/08/06 02:35:19;;;;;;;7.03;4.50;;;;;;;14.23;100.00;97217.47;10497215;28;20235;-72
2022/08/06 02:40:23;;;;;;;4.97;3.40;;;;;;;14.16;100.00;97213.03;10497188;28;20195;-72
2022/08/06 02:45:33;;;;;;;4.15;3.38;;;;;;;14.07;100.00;97212.22;10495401;28;20254;-72
2022/08/06 02:50:36;;;;;;;5.55;3.80;;;;;;;14.03;100.00;97214.38;10495323;28;20219;-72
2022/08/06 02:55:38;;;;;;;5.68;3.78;;;;;;;13.98;100.00;97234.28;10494884;28;20238;-71
2022/08/06 03:00:40;;;;;;;4.43;3.55;;;;;;;13.97;100.00;97245.84;10494702;28;20294;-71
2022/08/06 03:05:44;;;;;;;6.38;4.22;;;;;;;14.00;100.00;97248.94;10473729;28;20219;-71
2022/08/06 03:10:45;;;;;;;7.20;5.15;;;;;;;14.00;100.00;97262.13;10486895;28;20321;-71
2022/08/06 03:15:45;;;;;;;5.95;3.78;;;;;;;13.92;100.00;97259.50;10470158;28;20198;-71
2022/08/06 03:20:47;;;;;;;3.72;3.15;;;;;;;13.93;100.00;97261.13;10486432;28;20187;-71
2022/08/06 03:25:48;;;;;;;6.40;3.78;;;;;;;13.69;100.00;97275.91;10488437;28;20286;-71
2022/08/06 03:30:49;;;;;;;9.95;2.90;;;;;;;13.64;100.00;97282.66;10486089;28;20214;-71
2022/08/06 03:35:51;;;;;;;4.30;3.00;;;;;;;13.56;100.00;97288.72;10486001;28;20216;-71
2022/08/06 03:40:52;;;;;;;3.50;2.80;;;;;;;13.38;100.00;97292.31;10485850;28;20195;-71
2022/08/06 03:45:58;;;;;;;4.18;2.40;;;;;;;13.28;100.00;97301.28;10485971;28;20690;-71
2022/08/06 03:51:01;;;;;;;5.38;1.85;;;;;;;13.14;100.00;97302.69;10486121;28;20190;-71
2022/08/06 03:56:02;;;;;;;1.70;1.60;;;;;;;13.06;100.00;97321.06;10484934;28;20230;-71
2022/08/06 04:01:05;;;;;;;2.20;1.40;;;;;;;12.92;100.00;97319.84;10486115;28;20191;-70
2022/08/06 04:06:09;;;;;;;2.30;1.40;;;;;;;12.82;100.00;97325.22;10493209;28;20218;-71
2022/08/06 04:11:10;;;;;;;4.25;1.20;;;;;;;12.65;100.00;97340.09;10490019;28;20211;-70
2022/08/06 04:16:12;;;;;;;2.92;1.33;;;;;;;12.53;100.00;97346.56;10491641;28;20265;-71
2022/08/06 04:21:19;;;;;;;1.63;1.10;;;;;;;12.47;100.00;97327.78;10491151;28;20241;-70
2022/08/06 04:26:23;;;;;;;1.52;0.90;;;;;;;12.42;100.00;97334.47;10491281;28;20184;-70
2022/08/06 04:31:26;;;;;;;3.60;1.10;;;;;;;12.23;100.00;97346.81;10491575;28;20687;-70
2022/08/06 04:36:27;;;;;;;3.92;1.13;;;;;;;12.25;100.00;97365.03;10490619;28;20643;-70
2022/08/06 04:41:27;;;;;;;1.65;0.88;;;;;;;12.21;100.00;97358.47;10490976;28;20194;-70
2022/08/06 04:46:28;;;;;;;2.30;1.08;;;;;;;12.35;100.00;97370.22;10491040;28;20207;-70
2022/08/06 04:51:29;;;;;;;1.83;0.95;;;;;;;12.41;100.00;97375.69;10490052;28;20657;-70
2022/08/06 04:56:29;;;;;;;0.95;0.88;;;;;;;12.41;100.00;97385.38;10490618;28;20699;-70
2022/08/06 05:01:30;;;;;;;1.88;0.80;;;;;;;12.51;100.00;97390.56;10491050;28;20187;-70
2022/08/06 05:06:49;;;;;;;1.52;0.93;;;;;;;12.63;100.00;97394.59;10492246;28;20188;-70
2022/08/06 05:11:59;;;;;;;1.48;0.88;;;;;;;12.68;100.00;97397.59;10489813;28;20198;-70
2022/08/06 05:17:01;;;;;;;1.63;1.38;;;;;;;12.97;100.00;97393.84;10491359;28;20234;-70
2022/08/06 05:22:02;;;;;;;2.58;1.20;;;;;;;13.18;100.00;97393.47;10472461;28;20336;-70
2022/08/06 05:27:03;;;;;;;1.27;0.88;;;;;;;13.70;100.00;97401.31;10490213;28;20586;-70
2022/08/06 05:32:04;;;;;;;0.77;0.77;;;;;;;13.59;100.00;97411.31;10491759;28;20214;-70
2022/08/06 05:37:04;;;;;;;2.55;1.27;;;;;;;13.94;100.00;97410.28;10506076;28;20725;-70
2022/08/06 05:42:05;;;;;;;4.13;0.80;;;;;;;13.82;100.00;97408.94;10519497;28;20197;-70
2022/08/06 05:47:12;;;;;;;2.38;0.82;;;;;;;14.14;100.00;97410.00;10530986;28;20178;-70
2022/08/06 05:52:18;;;;;;;3.38;0.88;;;;;;;14.38;94.62;97386.31;10531332;28;20745;-70
2022/08/06 05:57:41;;;;;;;2.00;0.90;;;;;;;14.41;96.60;97399.16;10530117;28;20229;-70
2022/08/06 06:02:44;;;;;;;2.20;0.85;;;;;;;14.44;93.87;97403.28;10535837;28;20198;-70
2022/08/06 06:07:45;;;;;;;0.82;0.70;;;;;;;14.61;92.00;97396.25;10537254;28;20194;-70
2022/08/06 06:12:45;;;;;;;0.95;0.80;;;;;;;15.74;85.77;97368.88;10536465;28;20662;-70
2022/08/06 06:17:55;;;;;;;5.03;0.90;;;;;;;16.64;78.20;97313.75;10536364;28;20639;-70
2022/08/06 06:23:04;;;;;;;0.90;0.80;;;;;;;16.75;79.13;97347.72;10536569;28;20203;-70
2022/08/06 06:28:33;;;;;;;1.08;0.60;;;;;;;16.97;74.47;97298.41;10535384;28;20190;-70
2022/08/06 06:33:38;;;;;;;1.88;0.80;;;;;;;16.55;75.06;97320.94;10536269;28;20693;-70
2022/08/06 06:38:46;;;;;;;0.95;0.50;;;;;;;16.45;75.46;97336.22;10536094;28;20282;-70
2022/08/06 06:43:49;;;;;;;3.33;0.98;;;;;;;15.73;79.15;97382.25;10535625;28;20586;-70
2022/08/06 06:48:54;;;;;;;2.30;0.70;;;;;;;15.96;79.56;97375.25;10536101;28;20183;-70
2022/08/06 06:53:55;;;;;;;0.77;0.60;;;;;;;15.94;80.99;97416.06;10533949;28;20261;-70
2022/08/06 06:59:00;;;;;;;2.00;0.70;;;;;;;16.04;81.13;97414.84;10535511;28;20236;-70
2022/08/06 07:04:04;;;;;;;1.85;0.70;;;;;;;15.79;82.02;97426.50;10534244;28;20771;-70
2022/08/06 07:09:06;;;;;;;1.05;0.70;;;;;;;16.31;79.03;97394.19;10531984;28;20202;-71
2022/08/06 07:14:07;;;;;;;1.20;0.60;;;;;;;17.15;72.65;97319.22;10532789;28;20190;-70
2022/08/06 07:19:08;;;;;;;1.00;0.60;;;;;;;17.31;73.15;97352.63;10529561;28;20222;-70
2022/08/06 07:24:11;;;;;;;4.03;0.82;;;;;;;17.11;73.58;97365.59;10533088;28;20190;-71
2022/08/06 07:29:12;;;;;;;1.08;0.50;;;;;;;17.19;71.51;97341.66;10517338;28;20709;-70
2022/08/06 07:34:14;;;;;;;2.03;0.73;;;;;;;18.34;69.05;97326.03;10498877;28;20624;-70
2022/08/06 07:39:17;;;;;;;1.10;0.70;;;;;;;18.82;65.30;97273.13;10533388;28;20214;-71
2022/08/06 07:44:20;;;;;;;2.78;0.60;;;;;;;18.92;64.52;97285.28;10535139;28;20272;-71
2022/08/06 07:49:23;;;;;;;0.85;0.57;;;;;;;18.33;66.53;97319.09;10475301;28;20558;-71
2022/08/06 07:54:25;;;;;;;4.20;0.82;;;;;;;18.46;65.07;97303.28;10490761;28;20223;-71
2022/08/06 07:59:25;;;;;;;1.48;0.50;;;;;;;18.45;65.83;97324.72;10491619;28;20311;-71
2022/08/06 08:09:46;;;;;;;2.97;1.95;;;;;;;20.41;59.69;97251.72;10533407;28;20225;-71
2022/08/06 08:14:48;;;;;;;4.70;0.88;;;;;;;20.02;60.39;97274.66;10534840;28;20190;-70
2022/08/06 08:19:48;;;;;;;3.67;0.90;;;;;;;20.03;56.66;97191.16;10532519;28;20249;-70
2022/08/06 08:24:48;;;;;;;2.75;0.60;;;;;;;20.63;55.06;97185.78;10532773;28;20197;-71
2022/08/06 08:29:49;;;;;;;1.30;0.73;;;;;;;20.06;57.98;97254.59;10531253;28;20693;-71
2022/08/06 08:34:49;;;;;;;1.67;0.57;;;;;;;21.28;55.74;97244.38;10532680;28;20682;-71
2022/08/06 08:39:50;;;;;;;1.63;0.80;;;;;;;20.20;55.65;97210.19;10530751;28;20214;-70
2022/08/06 08:44:51;;;;;;;2.70;1.00;;;;;;;21.19;55.41;97240.31;10525580;28;20205;-71
2022/08/06 08:49:55;;;;;;;1.83;0.70;;;;;;;21.43;54.91;97244.09;10526352;28;20189;-71
2022/08/06 08:54:58;;;;;;;1.60;0.55;;;;;;;20.64;54.15;97200.72;10530100;28;20246;-70
2022/08/06 09:00:01;;;;;;;0.52;0.52;;;;;;;19.54;55.25;97193.97;10525731;28;20301;-70
2022/08/06 09:05:02;;;;;;;1.70;0.50;;;;;;;20.63;53.99;97213.22;10529082;28;20187;-71
2022/08/06 09:10:05;;;;;;;1.52;0.80;;;;;;;20.71;54.73;97230.84;10528360;28;20210;-71
2022/08/06 09:15:06;;;;;;;3.53;0.60;;;;;;;20.30;56.05;97250.50;10531252;28;20549;-71
2022/08/06 09:20:07;;;;;;;2.20;0.80;;;;;;;20.63;54.34;97220.41;10531131;28;20229;-71
2022/08/06 09:25:37;;;;;;;1.77;0.80;;;;;;;21.72;52.78;97220.59;10529153;28;20228;-71
2022/08/06 09:30:38;;;;;;;1.65;0.80;;;;;;;21.07;54.38;97245.50;10527688;28;20253;-71
2022/08/06 09:35:39;;;;;;;2.65;0.50;;;;;;;22.04;51.17;97193.91;10528663;28;20221;-72
2022/08/06 09:40:39;;;;;;;1.83;0.50;;;;;;;21.85;51.99;97212.53;10522864;28;20191;-71
2022/08/06 09:45:44;;;;;;;1.65;0.55;;;;;;;22.28;52.61;97245.63;10493994;28;20214;-71
2022/08/06 09:50:45;;;;;;;1.13;0.60;;;;;;;21.76;50.23;97173.81;10487760;28;20191;-71
2022/08/06 09:55:46;;;;;;;1.98;0.73;;;;;;;22.31;50.85;97188.34;10514790;28;20234;-71
2022/08/06 10:00:46;;;;;;;1.25;0.50;;;;;;;22.15;51.13;97200.38;10529197;28;20289;-72
2022/08/06 10:05:50;;;;;;;1.25;0.50;;;;;;;22.29;48.76;97153.03;10529246;28;20199;-71
2022/08/06 10:10:51;;;;;;;0.85;0.43;;;;;;;21.90;51.03;97211.88;10527250;28;20199;-71
2022/08/06 10:15:54;;;;;;;1.50;0.40;;;;;;;22.96;47.71;97139.78;10485711;28;20242;-71
2022/08/06 10:21:23;;;;;;;5.55;0.50;;;;;;;;;;10526755;28;20263;-71
2022/08/06 10:32:55;;;;;;;4.78;0.60;;;;;;;24.02;45.17;97131.28;10512417;28;20195;-71
2022/08/06 10:37:59;;;;;;;1.05;0.50;;;;;;;23.01;45.72;97080.31;10527527;28;20223;-71
2022/08/06 10:43:03;;;;;;;2.10;0.45;;;;;;;23.80;45.08;97105.06;10530233;28;20190;-71
2022/08/06 10:48:04;;;;;;;1.60;0.82;;;;;;;23.84;44.02;97081.31;10536188;28;20196;-71
2022/08/06 10:53:05;;;;;;;2.70;0.80;;;;;;;23.56;45.02;97100.72;10515551;28;20226;-71
2022/08/06 10:58:05;;;;;;;1.85;1.00;;;;;;;24.52;45.08;97128.09;10500354;28;20226;-71
2022/08/06 11:03:17;;;;;;;2.38;1.00;;;;;;;24.56;43.52;97086.41;10492852;28;20666;-71
2022/08/06 11:08:29;;;;;;;2.45;0.75;;;;;;;24.37;42.20;97032.16;10510886;28;20195;-71
2022/08/06 11:13:32;;;;;;;5.07;0.73;;;;;;;25.15;42.45;97080.03;10508175;28;20206;-71
2022/08/06 11:18:33;;;;;;;0.50;0.50;;;;;;;27.13;38.88;97048.41;10501908;28;20226;-71
2022/08/06 11:23:33;;;;;;;1.42;0.50;;;;;;;26.44;39.24;97021.03;10533471;28;20642;-71
2022/08/06 11:28:34;;;;;;;2.97;0.43;;;;;;;25.96;40.26;97020.69;10533511;28;20189;-71
2022/08/06 11:33:34;;;;;;;1.08;0.60;;;;;;;25.40;39.99;96993.84;10534620;28;20581;-71
2022/08/06 11:38:46;;;;;;;1.27;0.52;;;;;;;25.95;41.74;97080.00;10534335;28;20661;-71
2022/08/06 11:43:53;;;;;;;0.65;0.38;;;;;;;25.68;41.09;97042.28;10532038;28;20197;-71
2022/08/06 11:48:59;;;;;;;2.17;0.40;;;;;;;24.60;42.55;97068.00;10534627;28;20195;-71
2022/08/06 11:54:26;;;;;;;2.78;0.60;;;;;;;25.08;40.78;97029.25;10521661;28;20218;-71
2022/08/06 11:59:28;;;;;;;0.68;0.40;;;;;;;27.67;38.09;97048.34;10509406;28;20703;-71
2022/08/06 12:04:34;;;;;;;3.33;0.43;;;;;;;27.34;35.66;96950.69;10509263;28;20643;-71
2022/08/06 12:09:37;;;;;;;4.03;0.40;;;;;;;26.40;38.78;97009.19;10522974;28;20795;-71
2022/08/06 12:14:40;;;;;;;2.17;0.47;;;;;;;26.52;37.31;96957.97;10529485;28;20237;-71
2022/08/06 12:19:46;;;;;;;0.95;0.40;;;;;;;26.31;38.12;96986.50;10530812;28;20221;-72
2022/08/06 12:24:54;;;;;;;1.02;0.52;;;;;;;24.72;41.04;97006.34;10531348;28;20549;-71
2022/08/06 12:29:56;;;;;;;1.38;0.57;;;;;;;25.58;39.26;97000.03;10528022;28;20666;-72
2022/08/06 12:35:18;;;;;;;2.55;0.50;;;;;;;27.62;35.60;96964.84;10505414;28;20214;-72
2022/08/06 12:40:29;;;;;;;0.75;0.30;;;;;;;27.56;35.29;96939.78;10512125;28;20558;-71
2022/08/06 12:45:31;;;;;;;2.58;0.30;;;;;;;28.09;35.64;96963.25;10498969;28;20191;-72
2022/08/06 12:50:33;;;;;;;1.67;0.30;;;;;;;28.62;34.12;96923.53;10487537;28;20191;-72
2022/08/06 12:55:36;;;;;;;2.95;0.50;;;;;;;27.98;33.71;96870.00;10487657;28;20223;-72
2022/08/06 13:00:37;;;;;;;3.55;0.50;;;;;;;28.32;33.99;96905.41;10486172;28;20246;-72
2022/08/06 13:05:38;;;;;;;1.33;0.50;;;;;;;28.68;33.08;96916.25;10471952;28;20268;-72
2022/08/06 13:10:39;;;;;;;0.38;0.38;;;;;;;27.88;33.45;96873.47;10488036;28;20252;-72
2022/08/06 13:15:39;;;;;;;5.97;0.45;;;;;;;27.81;34.25;96894.41;10489787;28;20840;-71
2022/08/06 13:20:41;;;;;;;4.93;0.70;;;;;;;27.21;34.83;96890.06;10488647;28;20199;-70
2022/08/06 13:25:43;;;;;;;0.75;0.50;;;;;;;28.65;33.14;96911.41;10490178;28;20187;-70
2022/08/06 13:30:44;;;;;;;1.60;0.55;;;;;;;28.22;33.55;96879.22;10488173;28;20558;-70
2022/08/06 13:35:47;;;;;;;2.33;0.40;;;;;;;27.60;34.79;96899.72;10487781;28;20530;-70
2022/08/06 13:40:48;;;;;;;0.60;0.30;;;;;;;27.18;35.19;96912.09;10487939;28;20217;-70
2022/08/06 13:45:50;;;;;;;1.02;0.32;;;;;;;26.84;34.23;96871.22;10487521;28;20198;-70
2022/08/06 13:50:51;;;;;;;3.45;0.70;;;;;;;27.68;33.58;96882.25;10487631;28;20183;-71
2022/08/06 13:55:51;;;;;;;2.80;0.60;;;;;;;29.21;31.88;96909.81;10487502;28;20226;-70
2022/08/06 14:00:51;;;;;;;1.50;0.35;;;;;;;29.74;30.53;96890.50;10489006;28;20443;-71
2022/08/06 14:05:52;;;;;;;0.70;0.40;;;;;;;30.30;30.00;96859.72;10489224;28;20623;-71
2022/08/06 14:10:54;;;;;;;1.63;0.30;;;;;;;31.00;29.16;96864.13;10509861;28;20191;-70
2022/08/06 14:15:54;;;;;;;1.33;0.47;;;;;;;28.41;31.12;96803.28;10529692;28;20214;-71
2022/08/06 14:20:55;;;;;;;0.60;0.37;;;;;;;28.26;31.20;96836.41;10535721;28;20194;-70
2022/08/06 14:25:56;;;;;;;1.08;0.30;;;;;;;30.14;28.33;96802.25;10537299;28;20424;-71
2022/08/06 14:30:56;;;;;;;3.67;0.53;;;;;;;31.10;27.69;96804.47;10536558;28;20191;-70
2022/08/06 14:35:56;;;;;;;1.70;0.40;;;;;;;31.25;27.80;96838.69;10522622;28;20487;-71
2022/08/06 14:46:16;;;;;;;1.58;0.50;;;;;;;33.18;25.57;96813.69;10515197;28;20431;-71
2022/08/06 14:51:16;;;;;;;2.33;0.60;;;;;;;33.10;25.91;96830.69;10497952;28;20198;-71
2022/08/06 14:56:16;;;;;;;0.63;0.30;;;;;;;33.55;25.30;96809.19;10525394;28;20321;-71
2022/08/06 15:01:17;;;;;;;1.03;0.30;;;;;;;31.24;27.15;96753.16;10537281;28;20947;-71
2022/08/06 15:06:17;;;;;;;1.00;0.50;;;;;;;30.87;27.51;96763.53;10515222;28;21016;-71
2022/08/06 15:11:17;;;;;;;2.58;0.50;;;;;;;29.91;29.40;96798.34;10486577;28;20206;-69
2022/08/06 15:16:18;;;;;;;2.30;0.40;;;;;;;31.10;28.39;96820.72;10485859;28;20259;-70
2022/08/06 15:21:19;;;;;;;0.93;0.35;;;;;;;31.49;27.94;96833.28;10486685;28;20441;-71
2022/08/06 15:26:21;;;;;;;0.95;0.30;;;;;;;31.20;26.58;96755.66;10486490;28;20211;-71
2022/08/06 15:31:53;;;;;;;0.90;0.43;;;;;;;32.91;25.36;96800.09;10485346;28;20442;-70
2022/08/06 15:36:55;;;;;;;0.75;0.50;;;;;;;32.20;26.34;96781.97;10507501;28;20262;-70
2022/08/06 15:41:55;;;;;;;4.03;0.28;;;;;;;31.71;27.19;96799.47;10534741;28;20198;-71
2022/08/06 15:46:55;;;;;;;2.70;0.40;;;;;;;30.83;27.57;96775.22;10534902;28;20190;-70
2022/08/06 15:51:56;;;;;;;0.33;0.30;;;;;;;30.58;28.52;96809.53;10534955;28;20443;-71
2022/08/06 15:56:56;;;;;;;1.67;0.30;;;;;;;29.92;28.06;96748.66;10535975;28;21188;-70
2022/08/06 16:01:57;;;;;;;3.13;0.40;;;;;;;31.63;26.06;96768.41;10535570;28;20451;-71
2022/08/06 16:06:57;;;;;;;2.28;0.50;;;;;;;30.82;27.39;96792.56;10535781;28;20187;-70
2022/08/06 16:11:58;;;;;;;1.03;0.40;;;;;;;32.02;25.54;96767.31;10533551;28;20210;-70
2022/08/06 16:16:58;;;;;;;2.85;0.50;;;;;;;31.26;26.59;96784.25;10535591;28;20476;-70
2022/08/06 16:21:58;;;;;;;0.37;0.27;;;;;;;29.95;27.63;96740.00;10534958;28;20277;-70
2022/08/06 16:27:03;;;;;;;0.63;0.37;;;;;;;28.03;29.29;96721.91;10534933;28;20432;-70
2022/08/06 16:32:03;;;;;;;0.63;0.38;;;;;;;27.75;30.31;96767.88;10534578;28;20444;-70
2022/08/06 16:37:04;;;;;;;5.28;0.60;;;;;;;26.94;30.98;96755.69;10534372;28;20591;-70
2022/08/06 16:42:08;;;;;;;0.75;0.40;;;;;;;24.71;33.96;96780.47;10533448;28;20198;-70
2022/08/06 16:47:08;;;;;;;6.55;0.50;;;;;;;23.87;34.84;96791.91;10533956;28;20218;-69
2022/08/06 16:52:08;;;;;;;0.52;0.40;;;;;;;23.71;35.44;96817.53;10533989;28;20283;-70
2022/08/06 16:57:09;;;;;;;0.40;0.32;;;;;;;22.98;36.69;96843.78;10532451;28;20222;-70
2022/08/06 17:07:28;;;;;;;0.43;0.30;;;;;;;22.40;38.03;96872.03;10533530;28;20190;-71
2022/08/06 17:12:28;;;;;;;3.20;0.40;;;;;;;22.26;38.50;96890.88;10533735;28;20562;-71
2022/08/06 17:17:28;;;;;;;0.95;0.50;;;;;;;21.97;38.86;96899.69;10532584;28;20580;-71
2022/08/06 17:22:29;;;;;;;4.13;0.70;;;;;;;21.43;40.11;96924.25;10533438;28;20648;-71
2022/08/06 17:27:30;;;;;;;1.60;0.63;;;;;;;21.31;39.53;96910.81;10532255;28;20555;-71
2022/08/06 17:32:33;;;;;;;2.22;0.40;;;;;;;20.99;40.73;96934.88;10532587;28;20338;-71
2022/08/06 17:37:33;;;;;;;1.25;0.80;;;;;;;20.99;40.87;96950.84;10532272;28;20218;-72
2022/08/06 17:42:33;;;;;;;1.63;0.47;;;;;;;20.32;42.38;96977.06;10532304;28;20605;-71
2022/08/06 17:47:35;;;;;;;3.65;0.50;;;;;;;19.88;43.26;96998.09;10532503;28;20548;-71
2022/08/06 17:52:35;;;;;;;0.47;0.40;;;;;;;19.99;42.54;96985.19;10534441;28;20835;-71
2022/08/06 17:57:36;;;;;;;1.15;0.60;;;;;;;19.77;43.63;97023.47;10540910;28;20226;-71
2022/08/06 18:02:36;;;;;;;1.27;0.50;;;;;;;19.48;44.36;97038.00;10540503;28;20330;-71
2022/08/06 18:07:36;;;;;;;1.85;0.60;;;;;;;19.25;45.24;97063.13;10540177;28;20187;-71
2022/08/06 18:12:37;;;;;;;0.40;0.40;;;;;;;18.94;45.82;97073.50;10540511;28;20265;-71
2022/08/06 18:17:38;;;;;;;3.28;0.60;;;;;;;18.78;46.80;97103.84;10540048;28;20230;-71
2022/08/06 18:22:38;;;;;;;0.60;0.60;;;;;;;18.55;48.11;97136.81;10540424;28;20665;-71
2022/08/06 18:27:40;;;;;;;1.23;0.43;;;;;;;18.26;49.05;97146.66;10539328;28;20278;-71
2022/08/06 18:32:40;;;;;;;1.73;0.60;;;;;;;17.97;49.83;97168.88;10539971;28;20194;-71
2022/08/06 18:37:41;;;;;;;2.97;0.70;;;;;;;17.81;50.85;97193.81;10538587;28;20554;-71
2022/08/06 18:42:41;;;;;;;1.42;0.60;;;;;;;17.01;53.16;97225.53;10538892;28;20220;-70
2022/08/06 18:47:41;;;;;;;2.65;1.80;;;;;;;16.75;55.42;97268.31;10538255;28;20285;-71
2022/08/06 18:52:42;;;;;;;36.08;23.10;;;;;;;15.40;59.05;97324.31;10538453;28;20238;-70
2022/08/06 18:57:42;;;;;;;4.55;2.35;;;;;;;14.94;60.22;97343.44;10538355;28;20313;-70
2022/08/06 19:02:43;;;;;;;13.57;8.07;;;;;;;14.61;61.09;97348.78;10538217;28;20197;-70
2022/08/06 19:07:43;;;;;;;12.18;7.75;;;;;;;13.79;65.07;97399.53;10537600;28;20195;-70
2022/08/06 19:12:44;;;;;;;2.85;2.13;;;;;;;14.11;64.70;97395.34;10538088;28;20528;-71
2022/08/06 19:17:44;;;;;;;2.22;0.70;;;;;;;13.98;65.05;97385.28;10537623;28;20701;-70
2022/08/06 19:22:45;;;;;;;2.95;0.85;;;;;;;13.87;65.71;97404.84;10537653;28;20547;-70
2022/08/06 19:27:45;;;;;;;0.70;0.70;;;;;;;13.64;66.57;97404.56;10537134;28;20196;-70
2022/08/06 19:32:45;;;;;;;2.25;0.63;;;;;;;13.44;67.58;97409.25;10537277;28;20655;-70
2022/08/06 19:37:46;;;;;;;0.93;0.68;;;;;;;13.39;68.16;97419.44;10536696;28;20674;-70
2022/08/06 19:42:47;;;;;;;1.20;0.98;;;;;;;13.22;69.02;97422.94;10536569;28;20649;-70
2022/08/06 19:47:47;;;;;;;0.85;0.80;;;;;;;13.13;69.07;97429.97;10535042;28;20562;-70
2022/08/06 19:52:47;;;;;;;0.70;0.70;;;;;;;13.05;69.74;97438.63;10535563;28;20749;-70
2022/08/06 19:57:48;;;;;;;1.83;0.77;;;;;;;12.78;70.37;97450.09;10536110;28;20223;-70
2022/08/06 20:02:50;;;;;;;0.93;0.70;;;;;;;12.76;70.99;97452.06;10535939;28;20187;-70
2022/08/06 20:07:51;;;;;;;0.93;0.60;;;;;;;12.53;71.65;97462.22;10535393;28;20214;-70
2022/08/06 20:12:51;;;;;;;0.68;0.68;;;;;;;12.45;72.39;97466.41;10535843;28;20178;-70
2022/08/06 20:17:52;;;;;;;0.90;0.70;;;;;;;12.45;72.28;97478.69;10546072;28;20218;-70
2022/08/06 20:22:52;;;;;;;1.42;0.77;;;;;;;12.45;72.55;97479.53;10554490;28;20214;-71
2022/08/06 20:27:53;;;;;;;0.77;0.77;;;;;;;12.21;73.56;97490.63;10534563;28;20191;-70
2022/08/06 20:32:54;;;;;;;0.80;0.75;;;;;;;12.10;74.20;97493.47;10534918;28;20251;-70
2022/08/06 20:37:54;;;;;;;1.35;1.05;;;;;;;11.87;74.69;97508.75;10533058;28;20214;-70
2022/08/06 20:42:54;;;;;;;0.68;0.68;;;;;;;11.81;75.81;97511.91;10532835;28;20197;-70
2022/08/06 20:47:55;;;;;;;1.02;0.85;;;;;;;11.72;75.97;97517.06;10533872;28;20535;-70
2022/08/06 20:52:55;;;;;;;0.80;0.80;;;;;;;11.66;76.48;97512.41;10533802;28;20776;-71
2022/08/06 20:57:55;;;;;;;0.70;0.70;;;;;;;11.51;76.96;97517.28;10533398;28;20800;-70
2022/08/06 21:02:56;;;;;;;1.90;0.80;;;;;;;11.33;78.29;97535.56;10533628;28;20681;-70
2022/08/06 21:07:56;;;;;;;1.00;0.80;;;;;;;11.20;79.16;97525.34;10532579;28;20285;-70
2022/08/06 21:12:58;;;;;;;0.60;0.60;;;;;;;11.14;79.79;97527.72;10533639;28;20193;-70
2022/08/06 21:17:59;;;;;;;0.70;0.70;;;;;;;11.01;80.09;97528.81;10532994;28;20222;-70
2022/08/06 21:22:59;;;;;;;2.17;1.40;;;;;;;10.88;81.02;97536.94;10533057;28;20207;-70
2022/08/06 21:27:59;;;;;;;1.70;0.80;;;;;;;10.77;81.70;97539.72;10531056;28;20186;-70
2022/08/06 21:33:00;;;;;;;0.77;0.77;;;;;;;10.67;82.70;97539.72;10514830;28;20708;-70
2022/08/06 21:38:00;;;;;;;1.70;1.07;;;;;;;10.51;83.86;97545.47;10531185;28;20211;-70
2022/08/06 21:43:01;;;;;;;1.47;0.80;;;;;;;10.44;84.43;97543.53;10532400;28;20202;-70
2022/08/06 21:48:01;;;;;;;2.90;0.90;;;;;;;10.40;85.02;97547.38;10530366;28;20217;-70
2022/08/06 21:53:02;;;;;;;3.80;0.97;;;;;;;10.26;86.09;97541.53;10532173;28;20782;-70
2022/08/06 21:58:02;;;;;;;3.37;0.80;;;;;;;10.17;86.42;97539.72;10532613;28;20222;-70
2022/08/06 22:03:04;;;;;;;0.73;0.73;;;;;;;10.08;87.36;97548.38;10530418;28;20229;-69
2022/08/06 22:08:05;;;;;;;3.33;0.90;;;;;;;9.96;88.49;97561.56;10531401;28;20202;-70
2022/08/06 22:13:06;;;;;;;1.33;0.90;;;;;;;9.90;89.41;97559.47;10528289;28;20616;-70
2022/08/06 22:18:06;;;;;;;1.00;0.77;;;;;;;9.88;89.25;97556.16;10531121;28;20317;-70
2022/08/06 22:23:07;;;;;;;4.07;1.00;;;;;;;9.82;89.93;97559.28;10532004;28;20233;-70
2022/08/06 22:28:07;;;;;;;0.87;0.70;;;;;;;9.67;90.81;97557.97;10531453;28;20183;-70
2022/08/06 22:33:13;;;;;;;1.93;0.70;;;;;;;9.51;92.57;97567.13;10531986;28;20190;-70
2022/08/06 22:38:13;;;;;;;2.40;1.00;;;;;;;9.45;93.45;97551.94;10532386;28;20222;-70
2022/08/06 22:43:15;;;;;;;0.83;0.83;;;;;;;9.37;93.96;97551.75;10539256;28;20195;-70
2022/08/06 22:48:16;;;;;;;1.33;0.70;;;;;;;9.32;94.90;97559.16;10537507;28;20654;-70
2022/08/06 22:53:18;;;;;;;1.17;0.87;;;;;;;9.32;95.24;97548.69;10538934;28;20242;-69
2022/08/06 22:58:18;;;;;;;2.10;0.87;;;;;;;9.25;95.44;97546.59;10538476;28;20301;-70
2022/08/06 23:03:18;;;;;;;1.57;0.77;;;;;;;9.23;95.19;97540.66;10538423;28;20186;-70
2022/08/06 23:08:19;;;;;;;1.17;0.90;;;;;;;9.14;96.54;97548.44;10536992;28;20194;-70
2022/08/06 23:13:20;;;;;;;0.80;0.80;;;;;;;9.06;97.04;97549.06;10538010;28;20222;-69
2022/08/06 23:18:20;;;;;;;1.93;0.97;;;;;;;9.01;97.51;97544.22;10536989;28;20680;-70
2022/08/06 23:23:20;;;;;;;1.27;0.83;;;;;;;8.96;97.94;97543.78;10537971;28;20191;-69
2022/08/06 23:28:21;;;;;;;1.43;1.00;;;;;;;8.88;98.89;97546.16;10538074;28;20279;-69
2022/08/06 23:33:21;;;;;;;1.23;0.93;;;;;;;8.79;99.74;97539.06;10537525;28;20214;-70
2022/08/06 23:38:21;;;;;;;1.00;0.90;;;;;;;8.72;100.00;97549.19;10536121;28;20222;-70
2022/08/06 23:43:22;;;;;;;4.13;0.90;;;;;;;8.65;100.00;97543.66;10537048;28;20190;-70
2022/08/06 23:48:22;;;;;;;1.10;1.00;;;;;;;8.58;100.00;97534.66;10536678;28;20182;-69